sensor_id;sensor_type;location;lat;lon;timestamp;P1;durP1;ratioP1;P2;durP2;ratioP2
54807;SDS011;40708;50.364;7.550;2023-10-31T00:00:56;1.63;;;0.57;;
54807;SDS011;40708;50.364;7.550;2023-10-31T00:03:21;0.63;;;0.60;;
54807;SDS011;40708;50.364;7.550;2023-10-31T00:05:47;0.80;;;0.70;;
54807;SDS011;40708;50.364;7.550;2023-10-31T00:08:12;1.10;;;0.70;;
54807;SDS011;40708;50.364;7.550;2023-10-31T00:10:38;0.70;;;0.70;;
54807;SDS011;40708;50.364;7.550;2023-10-31T00:13:03;0.97;;;0.50;;
54807;SDS011;40708;50.364;7.550;2023-10-31T00:15:28;0.60;;;0.60;;
54807;SDS011;40708;50.364;7.550;2023-10-31T00:17:55;0.83;;;0.63;;
54807;SDS011;40708;50.364;7.550;2023-10-31T00:20:20;0.90;;;0.50;;
54807;SDS011;40708;50.364;7.550;2023-10-31T00:22:46;1.57;;;0.57;;
54807;SDS011;40708;50.364;7.550;2023-10-31T00:25:11;1.17;;;0.53;;
54807;SDS011;40708;50.364;7.550;2023-10-31T00:27:36;0.50;;;0.50;;
54807;SDS011;40708;50.364;7.550;2023-10-31T00:30:02;0.40;;;0.40;;
54807;SDS011;40708;50.364;7.550;2023-10-31T00:32:28;2.47;;;0.50;;
54807;SDS011;40708;50.364;7.550;2023-10-31T00:34:53;0.40;;;0.40;;
54807;SDS011;40708;50.364;7.550;2023-10-31T00:37:18;0.50;;;0.50;;
54807;SDS011;40708;50.364;7.550;2023-10-31T00:39:44;0.40;;;0.40;;
54807;SDS011;40708;50.364;7.550;2023-10-31T00:42:09;0.53;;;0.50;;
54807;SDS011;40708;50.364;7.550;2023-10-31T00:44:34;0.50;;;0.40;;
54807;SDS011;40708;50.364;7.550;2023-10-31T00:47:00;1.17;;;0.37;;
54807;SDS011;40708;50.364;7.550;2023-10-31T00:49:25;0.50;;;0.50;;
54807;SDS011;40708;50.364;7.550;2023-10-31T00:51:50;0.40;;;0.40;;
54807;SDS011;40708;50.364;7.550;2023-10-31T00:54:15;1.23;;;0.63;;
54807;SDS011;40708;50.364;7.550;2023-10-31T00:56:41;0.90;;;0.50;;
54807;SDS011;40708;50.364;7.550;2023-10-31T00:59:06;0.73;;;0.60;;
54807;SDS011;40708;50.364;7.550;2023-10-31T01:01:31;0.77;;;0.40;;
54807;SDS011;40708;50.364;7.550;2023-10-31T01:03:57;0.87;;;0.40;;
54807;SDS011;40708;50.364;7.550;2023-10-31T01:06:22;0.93;;;0.57;;
54807;SDS011;40708;50.364;7.550;2023-10-31T01:08:47;0.43;;;0.43;;
54807;SDS011;40708;50.364;7.550;2023-10-31T01:11:12;0.80;;;0.60;;
54807;SDS011;40708;50.364;7.550;2023-10-31T01:13:38;0.40;;;0.40;;
54807;SDS011;40708;50.364;7.550;2023-10-31T01:16:03;0.70;;;0.57;;
54807;SDS011;40708;50.364;7.550;2023-10-31T01:18:28;0.60;;;0.57;;
54807;SDS011;40708;50.364;7.550;2023-10-31T01:20:54;0.40;;;0.40;;
54807;SDS011;40708;50.364;7.550;2023-10-31T01:23:19;2.10;;;0.40;;
54807;SDS011;40708;50.364;7.550;2023-10-31T01:25:44;0.63;;;0.50;;
54807;SDS011;40708;50.364;7.550;2023-10-31T01:28:10;1.30;;;0.40;;
54807;SDS011;40708;50.364;7.550;2023-10-31T01:30:35;3.40;;;0.53;;
54807;SDS011;40708;50.364;7.550;2023-10-31T01:33:01;0.50;;;0.50;;
54807;SDS011;40708;50.364;7.550;2023-10-31T01:35:26;0.80;;;0.50;;
54807;SDS011;40708;50.364;7.550;2023-10-31T01:37:51;0.90;;;0.50;;
54807;SDS011;40708;50.364;7.550;2023-10-31T01:40:16;0.87;;;0.67;;
54807;SDS011;40708;50.364;7.550;2023-10-31T01:42:42;0.30;;;0.30;;
54807;SDS011;40708;50.364;7.550;2023-10-31T01:45:07;1.30;;;0.60;;
54807;SDS011;40708;50.364;7.550;2023-10-31T01:47:33;3.30;;;0.80;;
54807;SDS011;40708;50.364;7.550;2023-10-31T01:49:58;0.67;;;0.63;;
54807;SDS011;40708;50.364;7.550;2023-10-31T01:52:24;1.37;;;0.70;;
54807;SDS011;40708;50.364;7.550;2023-10-31T01:54:50;1.03;;;0.50;;
54807;SDS011;40708;50.364;7.550;2023-10-31T01:57:16;0.90;;;0.60;;
54807;SDS011;40708;50.364;7.550;2023-10-31T01:59:43;2.67;;;0.97;;
54807;SDS011;40708;50.364;7.550;2023-10-31T02:02:09;0.93;;;0.57;;
54807;SDS011;40708;50.364;7.550;2023-10-31T02:04:35;0.60;;;0.60;;
54807;SDS011;40708;50.364;7.550;2023-10-31T02:07:00;0.83;;;0.70;;
54807;SDS011;40708;50.364;7.550;2023-10-31T02:09:25;2.37;;;0.80;;
54807;SDS011;40708;50.364;7.550;2023-10-31T02:11:54;1.43;;;0.70;;
54807;SDS011;40708;50.364;7.550;2023-10-31T02:14:20;1.70;;;0.80;;
54807;SDS011;40708;50.364;7.550;2023-10-31T02:16:47;0.70;;;0.70;;
54807;SDS011;40708;50.364;7.550;2023-10-31T02:19:12;1.63;;;0.90;;
54807;SDS011;40708;50.364;7.550;2023-10-31T02:21:43;1.93;;;0.67;;
54807;SDS011;40708;50.364;7.550;2023-10-31T02:24:08;1.00;;;0.90;;
54807;SDS011;40708;50.364;7.550;2023-10-31T02:26:34;1.20;;;0.63;;
54807;SDS011;40708;50.364;7.550;2023-10-31T02:29:00;1.07;;;0.60;;
54807;SDS011;40708;50.364;7.550;2023-10-31T02:31:26;0.70;;;0.70;;
54807;SDS011;40708;50.364;7.550;2023-10-31T02:33:51;2.20;;;0.80;;
54807;SDS011;40708;50.364;7.550;2023-10-31T02:36:17;1.30;;;0.70;;
54807;SDS011;40708;50.364;7.550;2023-10-31T02:38:42;0.80;;;0.77;;
54807;SDS011;40708;50.364;7.550;2023-10-31T02:41:08;0.80;;;0.60;;
54807;SDS011;40708;50.364;7.550;2023-10-31T02:43:33;1.93;;;0.70;;
54807;SDS011;40708;50.364;7.550;2023-10-31T02:45:59;0.77;;;0.70;;
54807;SDS011;40708;50.364;7.550;2023-10-31T02:48:25;0.50;;;0.50;;
54807;SDS011;40708;50.364;7.550;2023-10-31T02:50:51;1.23;;;0.80;;
54807;SDS011;40708;50.364;7.550;2023-10-31T02:53:20;1.70;;;0.70;;
54807;SDS011;40708;50.364;7.550;2023-10-31T02:55:45;1.20;;;0.83;;
54807;SDS011;40708;50.364;7.550;2023-10-31T02:58:11;2.37;;;0.53;;
54807;SDS011;40708;50.364;7.550;2023-10-31T03:00:36;2.37;;;0.90;;
54807;SDS011;40708;50.364;7.550;2023-10-31T03:03:02;0.93;;;0.80;;
54807;SDS011;40708;50.364;7.550;2023-10-31T03:05:27;1.53;;;0.80;;
54807;SDS011;40708;50.364;7.550;2023-10-31T03:07:52;3.80;;;0.70;;
54807;SDS011;40708;50.364;7.550;2023-10-31T03:10:19;1.97;;;0.80;;
54807;SDS011;40708;50.364;7.550;2023-10-31T03:12:44;2.17;;;0.70;;
54807;SDS011;40708;50.364;7.550;2023-10-31T03:15:10;2.47;;;0.73;;
54807;SDS011;40708;50.364;7.550;2023-10-31T03:17:35;2.27;;;0.83;;
54807;SDS011;40708;50.364;7.550;2023-10-31T03:20:01;2.23;;;0.90;;
54807;SDS011;40708;50.364;7.550;2023-10-31T03:22:26;1.73;;;0.90;;
54807;SDS011;40708;50.364;7.550;2023-10-31T03:24:51;2.60;;;1.17;;
54807;SDS011;40708;50.364;7.550;2023-10-31T03:27:16;1.43;;;0.90;;
54807;SDS011;40708;50.364;7.550;2023-10-31T03:29:42;1.63;;;0.63;;
54807;SDS011;40708;50.364;7.550;2023-10-31T03:32:07;1.43;;;0.90;;
54807;SDS011;40708;50.364;7.550;2023-10-31T03:34:32;0.80;;;0.80;;
54807;SDS011;40708;50.364;7.550;2023-10-31T03:36:57;1.20;;;0.73;;
54807;SDS011;40708;50.364;7.550;2023-10-31T03:39:23;1.27;;;0.70;;
54807;SDS011;40708;50.364;7.550;2023-10-31T03:41:48;1.13;;;0.70;;
54807;SDS011;40708;50.364;7.550;2023-10-31T03:44:13;1.30;;;0.70;;
54807;SDS011;40708;50.364;7.550;2023-10-31T03:46:39;3.63;;;0.80;;
54807;SDS011;40708;50.364;7.550;2023-10-31T03:49:04;3.17;;;0.93;;
54807;SDS011;40708;50.364;7.550;2023-10-31T03:51:32;0.70;;;0.70;;
54807;SDS011;40708;50.364;7.550;2023-10-31T03:53:58;0.50;;;0.40;;
54807;SDS011;40708;50.364;7.550;2023-10-31T03:56:23;1.87;;;0.67;;
54807;SDS011;40708;50.364;7.550;2023-10-31T03:58:48;1.73;;;0.70;;
54807;SDS011;40708;50.364;7.550;2023-10-31T04:01:14;0.60;;;0.57;;
54807;SDS011;40708;50.364;7.550;2023-10-31T04:03:39;2.73;;;0.50;;
54807;SDS011;40708;50.364;7.550;2023-10-31T04:06:04;1.70;;;0.70;;
54807;SDS011;40708;50.364;7.550;2023-10-31T04:08:30;2.03;;;0.70;;
54807;SDS011;40708;50.364;7.550;2023-10-31T04:10:55;1.60;;;0.77;;
54807;SDS011;40708;50.364;7.550;2023-10-31T04:13:20;0.97;;;0.97;;
54807;SDS011;40708;50.364;7.550;2023-10-31T04:15:46;0.93;;;0.70;;
54807;SDS011;40708;50.364;7.550;2023-10-31T04:18:11;0.60;;;0.60;;
54807;SDS011;40708;50.364;7.550;2023-10-31T04:20:36;0.50;;;0.50;;
54807;SDS011;40708;50.364;7.550;2023-10-31T04:23:02;0.80;;;0.80;;
54807;SDS011;40708;50.364;7.550;2023-10-31T04:25:27;1.03;;;0.87;;
54807;SDS011;40708;50.364;7.550;2023-10-31T04:27:54;2.30;;;0.77;;
54807;SDS011;40708;50.364;7.550;2023-10-31T04:30:19;0.60;;;0.60;;
54807;SDS011;40708;50.364;7.550;2023-10-31T04:32:44;3.00;;;0.60;;
54807;SDS011;40708;50.364;7.550;2023-10-31T04:35:10;1.97;;;0.80;;
54807;SDS011;40708;50.364;7.550;2023-10-31T04:37:35;0.60;;;0.50;;
54807;SDS011;40708;50.364;7.550;2023-10-31T04:40:01;1.10;;;0.80;;
54807;SDS011;40708;50.364;7.550;2023-10-31T04:42:26;1.03;;;0.70;;
54807;SDS011;40708;50.364;7.550;2023-10-31T04:44:52;3.27;;;0.90;;
54807;SDS011;40708;50.364;7.550;2023-10-31T04:47:17;1.33;;;0.90;;
54807;SDS011;40708;50.364;7.550;2023-10-31T04:49:42;2.20;;;0.90;;
54807;SDS011;40708;50.364;7.550;2023-10-31T04:52:07;1.50;;;0.90;;
54807;SDS011;40708;50.364;7.550;2023-10-31T04:54:33;1.10;;;1.00;;
54807;SDS011;40708;50.364;7.550;2023-10-31T04:56:59;1.17;;;1.07;;
54807;SDS011;40708;50.364;7.550;2023-10-31T04:59:24;1.00;;;0.90;;
54807;SDS011;40708;50.364;7.550;2023-10-31T05:01:50;2.33;;;1.00;;
54807;SDS011;40708;50.364;7.550;2023-10-31T05:04:16;1.17;;;1.07;;
54807;SDS011;40708;50.364;7.550;2023-10-31T05:06:42;1.10;;;1.00;;
54807;SDS011;40708;50.364;7.550;2023-10-31T05:09:07;1.80;;;1.10;;
54807;SDS011;40708;50.364;7.550;2023-10-31T05:11:32;1.67;;;1.10;;
54807;SDS011;40708;50.364;7.550;2023-10-31T05:13:58;1.47;;;1.03;;
54807;SDS011;40708;50.364;7.550;2023-10-31T05:16:24;1.20;;;1.10;;
54807;SDS011;40708;50.364;7.550;2023-10-31T05:18:49;2.60;;;1.27;;
54807;SDS011;40708;50.364;7.550;2023-10-31T05:21:18;1.40;;;1.00;;
54807;SDS011;40708;50.364;7.550;2023-10-31T05:23:44;1.03;;;0.80;;
54807;SDS011;40708;50.364;7.550;2023-10-31T05:26:09;0.90;;;0.90;;
54807;SDS011;40708;50.364;7.550;2023-10-31T05:28:35;1.23;;;1.00;;
54807;SDS011;40708;50.364;7.550;2023-10-31T05:31:00;1.40;;;1.30;;
54807;SDS011;40708;50.364;7.550;2023-10-31T05:33:25;1.10;;;1.00;;
54807;SDS011;40708;50.364;7.550;2023-10-31T05:35:51;1.37;;;0.90;;
54807;SDS011;40708;50.364;7.550;2023-10-31T05:38:16;1.80;;;1.07;;
54807;SDS011;40708;50.364;7.550;2023-10-31T05:40:41;1.43;;;1.30;;
54807;SDS011;40708;50.364;7.550;2023-10-31T05:43:06;1.77;;;1.00;;
54807;SDS011;40708;50.364;7.550;2023-10-31T05:45:32;2.47;;;1.20;;
54807;SDS011;40708;50.364;7.550;2023-10-31T05:47:58;1.37;;;1.27;;
54807;SDS011;40708;50.364;7.550;2023-10-31T05:50:23;1.47;;;1.37;;
54807;SDS011;40708;50.364;7.550;2023-10-31T05:52:48;1.40;;;1.30;;
54807;SDS011;40708;50.364;7.550;2023-10-31T05:55:14;1.90;;;1.30;;
54807;SDS011;40708;50.364;7.550;2023-10-31T05:57:39;2.47;;;1.60;;
54807;SDS011;40708;50.364;7.550;2023-10-31T06:00:05;1.57;;;1.20;;
54807;SDS011;40708;50.364;7.550;2023-10-31T06:02:33;2.40;;;1.30;;
54807;SDS011;40708;50.364;7.550;2023-10-31T06:04:59;1.50;;;1.40;;
54807;SDS011;40708;50.364;7.550;2023-10-31T06:07:24;1.47;;;1.23;;
54807;SDS011;40708;50.364;7.550;2023-10-31T06:09:49;3.03;;;1.40;;
54807;SDS011;40708;50.364;7.550;2023-10-31T06:12:15;1.67;;;1.33;;
54807;SDS011;40708;50.364;7.550;2023-10-31T06:14:40;2.17;;;1.40;;
54807;SDS011;40708;50.364;7.550;2023-10-31T06:17:06;2.20;;;1.50;;
54807;SDS011;40708;50.364;7.550;2023-10-31T06:19:35;1.30;;;1.20;;
54807;SDS011;40708;50.364;7.550;2023-10-31T06:22:01;1.77;;;1.30;;
54807;SDS011;40708;50.364;7.550;2023-10-31T06:24:26;1.33;;;1.23;;
54807;SDS011;40708;50.364;7.550;2023-10-31T06:26:52;1.93;;;1.33;;
54807;SDS011;40708;50.364;7.550;2023-10-31T06:29:17;1.90;;;1.33;;
54807;SDS011;40708;50.364;7.550;2023-10-31T06:31:43;1.80;;;1.37;;
54807;SDS011;40708;50.364;7.550;2023-10-31T06:34:08;1.97;;;1.70;;
54807;SDS011;40708;50.364;7.550;2023-10-31T06:36:33;2.57;;;1.70;;
54807;SDS011;40708;50.364;7.550;2023-10-31T06:38:58;1.50;;;1.40;;
54807;SDS011;40708;50.364;7.550;2023-10-31T06:41:24;1.70;;;1.60;;
54807;SDS011;40708;50.364;7.550;2023-10-31T06:43:49;1.77;;;1.40;;
54807;SDS011;40708;50.364;7.550;2023-10-31T06:46:15;1.43;;;1.33;;
54807;SDS011;40708;50.364;7.550;2023-10-31T06:48:41;2.00;;;1.47;;
54807;SDS011;40708;50.364;7.550;2023-10-31T06:51:06;2.97;;;1.67;;
54807;SDS011;40708;50.364;7.550;2023-10-31T06:53:32;2.23;;;1.60;;
54807;SDS011;40708;50.364;7.550;2023-10-31T06:55:57;2.70;;;1.73;;
54807;SDS011;40708;50.364;7.550;2023-10-31T06:58:22;2.20;;;1.67;;
54807;SDS011;40708;50.364;7.550;2023-10-31T07:00:47;2.83;;;1.50;;
54807;SDS011;40708;50.364;7.550;2023-10-31T07:03:13;2.03;;;1.67;;
54807;SDS011;40708;50.364;7.550;2023-10-31T07:05:40;2.53;;;1.70;;
54807;SDS011;40708;50.364;7.550;2023-10-31T07:08:06;1.70;;;1.60;;
54807;SDS011;40708;50.364;7.550;2023-10-31T07:10:31;2.70;;;1.50;;
54807;SDS011;40708;50.364;7.550;2023-10-31T07:12:58;2.30;;;1.70;;
54807;SDS011;40708;50.364;7.550;2023-10-31T07:15:24;2.10;;;1.70;;
54807;SDS011;40708;50.364;7.550;2023-10-31T07:17:49;3.17;;;1.83;;
54807;SDS011;40708;50.364;7.550;2023-10-31T07:20:14;1.80;;;1.60;;
54807;SDS011;40708;50.364;7.550;2023-10-31T07:22:40;3.23;;;1.87;;
54807;SDS011;40708;50.364;7.550;2023-10-31T07:25:05;2.27;;;1.77;;
54807;SDS011;40708;50.364;7.550;2023-10-31T07:27:32;2.73;;;1.80;;
54807;SDS011;40708;50.364;7.550;2023-10-31T07:29:57;3.13;;;2.10;;
54807;SDS011;40708;50.364;7.550;2023-10-31T07:32:23;7.20;;;2.00;;
54807;SDS011;40708;50.364;7.550;2023-10-31T07:34:48;3.33;;;2.13;;
54807;SDS011;40708;50.364;7.550;2023-10-31T07:37:14;5.03;;;2.10;;
54807;SDS011;40708;50.364;7.550;2023-10-31T07:39:39;3.73;;;1.70;;
54807;SDS011;40708;50.364;7.550;2023-10-31T07:42:04;3.27;;;1.77;;
54807;SDS011;40708;50.364;7.550;2023-10-31T07:44:30;2.87;;;1.80;;
54807;SDS011;40708;50.364;7.550;2023-10-31T07:46:55;2.27;;;1.93;;
54807;SDS011;40708;50.364;7.550;2023-10-31T07:49:20;2.27;;;1.90;;
54807;SDS011;40708;50.364;7.550;2023-10-31T07:51:46;3.57;;;2.00;;
54807;SDS011;40708;50.364;7.550;2023-10-31T07:54:13;2.47;;;1.80;;
54807;SDS011;40708;50.364;7.550;2023-10-31T07:56:39;3.17;;;1.80;;
54807;SDS011;40708;50.364;7.550;2023-10-31T07:59:05;3.30;;;1.73;;
54807;SDS011;40708;50.364;7.550;2023-10-31T08:01:32;2.83;;;1.90;;
54807;SDS011;40708;50.364;7.550;2023-10-31T08:03:58;2.20;;;1.60;;
54807;SDS011;40708;50.364;7.550;2023-10-31T08:06:23;2.80;;;1.60;;
54807;SDS011;40708;50.364;7.550;2023-10-31T08:08:48;3.23;;;2.00;;
54807;SDS011;40708;50.364;7.550;2023-10-31T08:11:14;1.80;;;1.60;;
54807;SDS011;40708;50.364;7.550;2023-10-31T08:13:40;2.97;;;1.40;;
54807;SDS011;40708;50.364;7.550;2023-10-31T08:16:06;2.70;;;1.53;;
54807;SDS011;40708;50.364;7.550;2023-10-31T08:18:32;2.80;;;1.83;;
54807;SDS011;40708;50.364;7.550;2023-10-31T08:20:58;2.17;;;1.63;;
54807;SDS011;40708;50.364;7.550;2023-10-31T08:23:24;2.50;;;1.70;;
54807;SDS011;40708;50.364;7.550;2023-10-31T08:25:50;3.00;;;1.70;;
54807;SDS011;40708;50.364;7.550;2023-10-31T08:28:15;1.50;;;1.40;;
54807;SDS011;40708;50.364;7.550;2023-10-31T08:30:41;3.50;;;1.90;;
54807;SDS011;40708;50.364;7.550;2023-10-31T08:33:06;2.73;;;1.70;;
54807;SDS011;40708;50.364;7.550;2023-10-31T08:35:32;2.10;;;1.53;;
54807;SDS011;40708;50.364;7.550;2023-10-31T08:37:57;1.93;;;1.60;;
54807;SDS011;40708;50.364;7.550;2023-10-31T08:40:23;1.77;;;1.50;;
54807;SDS011;40708;50.364;7.550;2023-10-31T08:42:48;3.57;;;1.83;;
54807;SDS011;40708;50.364;7.550;2023-10-31T08:45:13;3.93;;;1.77;;
54807;SDS011;40708;50.364;7.550;2023-10-31T08:47:39;3.07;;;1.83;;
54807;SDS011;40708;50.364;7.550;2023-10-31T08:50:04;2.20;;;1.53;;
54807;SDS011;40708;50.364;7.550;2023-10-31T08:52:30;3.40;;;1.50;;
54807;SDS011;40708;50.364;7.550;2023-10-31T08:54:55;2.83;;;1.50;;
54807;SDS011;40708;50.364;7.550;2023-10-31T08:57:21;2.30;;;1.87;;
54807;SDS011;40708;50.364;7.550;2023-10-31T08:59:47;4.20;;;1.77;;
54807;SDS011;40708;50.364;7.550;2023-10-31T09:02:12;2.37;;;1.50;;
54807;SDS011;40708;50.364;7.550;2023-10-31T09:04:37;2.07;;;1.53;;
54807;SDS011;40708;50.364;7.550;2023-10-31T09:07:03;2.27;;;1.60;;
54807;SDS011;40708;50.364;7.550;2023-10-31T09:09:28;2.67;;;1.70;;
54807;SDS011;40708;50.364;7.550;2023-10-31T09:11:54;2.87;;;1.53;;
54807;SDS011;40708;50.364;7.550;2023-10-31T09:14:19;2.07;;;1.27;;
54807;SDS011;40708;50.364;7.550;2023-10-31T09:16:45;1.50;;;1.40;;
54807;SDS011;40708;50.364;7.550;2023-10-31T09:19:10;2.27;;;1.30;;
54807;SDS011;40708;50.364;7.550;2023-10-31T09:21:35;2.87;;;1.50;;
54807;SDS011;40708;50.364;7.550;2023-10-31T09:24:01;2.33;;;1.53;;
54807;SDS011;40708;50.364;7.550;2023-10-31T09:26:27;2.07;;;1.50;;
54807;SDS011;40708;50.364;7.550;2023-10-31T09:28:53;2.43;;;1.43;;
54807;SDS011;40708;50.364;7.550;2023-10-31T09:31:18;2.57;;;1.40;;
54807;SDS011;40708;50.364;7.550;2023-10-31T09:33:44;3.13;;;1.30;;
54807;SDS011;40708;50.364;7.550;2023-10-31T09:36:10;1.87;;;1.50;;
54807;SDS011;40708;50.364;7.550;2023-10-31T09:38:36;2.87;;;1.13;;
54807;SDS011;40708;50.364;7.550;2023-10-31T09:41:01;1.70;;;1.30;;
54807;SDS011;40708;50.364;7.550;2023-10-31T09:43:27;2.33;;;1.40;;
54807;SDS011;40708;50.364;7.550;2023-10-31T09:45:53;1.83;;;1.07;;
54807;SDS011;40708;50.364;7.550;2023-10-31T09:48:19;1.77;;;1.30;;
54807;SDS011;40708;50.364;7.550;2023-10-31T09:50:45;1.70;;;1.10;;
54807;SDS011;40708;50.364;7.550;2023-10-31T09:53:11;1.77;;;1.13;;
54807;SDS011;40708;50.364;7.550;2023-10-31T09:55:39;2.20;;;1.20;;
54807;SDS011;40708;50.364;7.550;2023-10-31T09:58:04;3.97;;;1.20;;
54807;SDS011;40708;50.364;7.550;2023-10-31T10:00:30;5.67;;;1.63;;
54807;SDS011;40708;50.364;7.550;2023-10-31T10:02:55;1.60;;;0.80;;
54807;SDS011;40708;50.364;7.550;2023-10-31T10:05:20;0.97;;;0.87;;
54807;SDS011;40708;50.364;7.550;2023-10-31T10:07:48;1.90;;;0.80;;
54807;SDS011;40708;50.364;7.550;2023-10-31T10:10:13;2.60;;;1.10;;
54807;SDS011;40708;50.364;7.550;2023-10-31T10:12:41;1.63;;;1.10;;
54807;SDS011;40708;50.364;7.550;2023-10-31T10:15:07;2.63;;;1.30;;
54807;SDS011;40708;50.364;7.550;2023-10-31T10:17:33;2.00;;;1.10;;
54807;SDS011;40708;50.364;7.550;2023-10-31T10:22:38;1.83;;;1.03;;
54807;SDS011;40708;50.364;7.550;2023-10-31T10:25:14;2.63;;;1.33;;
54807;SDS011;40708;50.364;7.550;2023-10-31T10:27:42;2.17;;;1.20;;
54807;SDS011;40708;50.364;7.550;2023-10-31T10:30:08;2.23;;;1.20;;
54807;SDS011;40708;50.364;7.550;2023-10-31T10:32:34;2.40;;;1.30;;
54807;SDS011;40708;50.364;7.550;2023-10-31T10:34:59;1.37;;;1.03;;
54807;SDS011;40708;50.364;7.550;2023-10-31T10:37:28;2.40;;;1.23;;
54807;SDS011;40708;50.364;7.550;2023-10-31T10:39:55;0.80;;;0.77;;
54807;SDS011;40708;50.364;7.550;2023-10-31T10:42:30;2.73;;;1.20;;
54807;SDS011;40708;50.364;7.550;2023-10-31T10:45:01;3.37;;;1.30;;
54807;SDS011;40708;50.364;7.550;2023-10-31T10:47:29;2.40;;;1.20;;
54807;SDS011;40708;50.364;7.550;2023-10-31T10:49:58;4.03;;;1.20;;
54807;SDS011;40708;50.364;7.550;2023-10-31T10:52:44;2.70;;;1.10;;
54807;SDS011;40708;50.364;7.550;2023-10-31T10:55:24;1.97;;;1.00;;
54807;SDS011;40708;50.364;7.550;2023-10-31T10:57:56;1.87;;;1.10;;
54807;SDS011;40708;50.364;7.550;2023-10-31T11:00:26;1.80;;;1.27;;
54807;SDS011;40708;50.364;7.550;2023-10-31T11:02:54;3.20;;;1.10;;
54807;SDS011;40708;50.364;7.550;2023-10-31T11:05:21;2.63;;;1.20;;
54807;SDS011;40708;50.364;7.550;2023-10-31T11:07:48;2.37;;;1.40;;
54807;SDS011;40708;50.364;7.550;2023-10-31T11:10:16;2.63;;;1.13;;
54807;SDS011;40708;50.364;7.550;2023-10-31T11:12:42;2.57;;;1.90;;
54807;SDS011;40708;50.364;7.550;2023-10-31T11:15:08;2.60;;;1.25;;
54807;SDS011;40708;50.364;7.550;2023-10-31T11:17:40;2.25;;;1.35;;
54807;SDS011;40708;50.364;7.550;2023-10-31T11:20:09;4.22;;;1.50;;
54807;SDS011;40708;50.364;7.550;2023-10-31T11:22:37;2.65;;;1.02;;
54807;SDS011;40708;50.364;7.550;2023-10-31T11:25:03;4.75;;;1.58;;
54807;SDS011;40708;50.364;7.550;2023-10-31T11:27:29;3.40;;;1.25;;
54807;SDS011;40708;50.364;7.550;2023-10-31T11:30:00;5.50;;;1.38;;
54807;SDS011;40708;50.364;7.550;2023-10-31T11:32:26;4.70;;;1.40;;
54807;SDS011;40708;50.364;7.550;2023-10-31T11:34:52;4.70;;;1.38;;
54807;SDS011;40708;50.364;7.550;2023-10-31T11:37:27;1.83;;;1.20;;
54807;SDS011;40708;50.364;7.550;2023-10-31T11:42:49;2.28;;;1.00;;
54807;SDS011;40708;50.364;7.550;2023-10-31T11:45:27;6.68;;;2.90;;
54807;SDS011;40708;50.364;7.550;2023-10-31T11:47:57;3.53;;;1.25;;
54807;SDS011;40708;50.364;7.550;2023-10-31T11:50:22;5.03;;;1.30;;
54807;SDS011;40708;50.364;7.550;2023-10-31T11:53:01;5.20;;;1.80;;
54807;SDS011;40708;50.364;7.550;2023-10-31T11:55:47;2.72;;;1.20;;
54807;SDS011;40708;50.364;7.550;2023-10-31T11:58:20;2.05;;;1.35;;
54807;SDS011;40708;50.364;7.550;2023-10-31T12:00:51;2.53;;;1.30;;
54807;SDS011;40708;50.364;7.550;2023-10-31T12:03:19;2.78;;;1.23;;
54807;SDS011;40708;50.364;7.550;2023-10-31T12:05:55;1.98;;;1.10;;
54807;SDS011;40708;50.364;7.550;2023-10-31T12:08:24;2.42;;;1.20;;
54807;SDS011;40708;50.364;7.550;2023-10-31T12:10:50;3.47;;;1.23;;
54807;SDS011;40708;50.364;7.550;2023-10-31T12:13:15;3.47;;;1.65;;
54807;SDS011;40708;50.364;7.550;2023-10-31T12:15:51;5.93;;;1.52;;
54807;SDS011;40708;50.364;7.550;2023-10-31T12:18:17;4.10;;;1.23;;
54807;SDS011;40708;50.364;7.550;2023-10-31T12:20:49;4.57;;;1.27;;
54807;SDS011;40708;50.364;7.550;2023-10-31T12:23:15;2.13;;;1.08;;
54807;SDS011;40708;50.364;7.550;2023-10-31T12:25:46;2.75;;;1.30;;
54807;SDS011;40708;50.364;7.550;2023-10-31T12:28:21;5.78;;;1.30;;
54807;SDS011;40708;50.364;7.550;2023-10-31T12:30:48;3.67;;;1.20;;
54807;SDS011;40708;50.364;7.550;2023-10-31T12:33:17;3.65;;;1.48;;
54807;SDS011;40708;50.364;7.550;2023-10-31T12:35:43;2.90;;;1.40;;
54807;SDS011;40708;50.364;7.550;2023-10-31T12:38:10;4.45;;;1.10;;
54807;SDS011;40708;50.364;7.550;2023-10-31T12:40:37;4.75;;;1.45;;
54807;SDS011;40708;50.364;7.550;2023-10-31T12:43:03;3.92;;;1.40;;
54807;SDS011;40708;50.364;7.550;2023-10-31T12:45:28;2.45;;;1.40;;
54807;SDS011;40708;50.364;7.550;2023-10-31T12:48:02;1.45;;;1.05;;
54807;SDS011;40708;50.364;7.550;2023-10-31T12:50:31;4.47;;;1.17;;
54807;SDS011;40708;50.364;7.550;2023-10-31T12:52:58;4.15;;;1.27;;
54807;SDS011;40708;50.364;7.550;2023-10-31T12:55:25;2.83;;;0.80;;
54807;SDS011;40708;50.364;7.550;2023-10-31T12:57:54;3.40;;;1.63;;
54807;SDS011;40708;50.364;7.550;2023-10-31T13:00:20;3.83;;;1.17;;
54807;SDS011;40708;50.364;7.550;2023-10-31T13:03:03;2.13;;;1.02;;
54807;SDS011;40708;50.364;7.550;2023-10-31T13:05:30;2.72;;;1.33;;
54807;SDS011;40708;50.364;7.550;2023-10-31T13:07:56;2.67;;;1.30;;
54807;SDS011;40708;50.364;7.550;2023-10-31T13:10:26;3.70;;;1.20;;
54807;SDS011;40708;50.364;7.550;2023-10-31T13:12:52;3.97;;;1.15;;
54807;SDS011;40708;50.364;7.550;2023-10-31T13:15:18;3.60;;;1.20;;
54807;SDS011;40708;50.364;7.550;2023-10-31T13:17:45;5.50;;;1.55;;
54807;SDS011;40708;50.364;7.550;2023-10-31T13:20:11;2.38;;;1.08;;
54807;SDS011;40708;50.364;7.550;2023-10-31T13:22:38;5.28;;;1.60;;
54807;SDS011;40708;50.364;7.550;2023-10-31T13:25:05;3.50;;;1.27;;
54807;SDS011;40708;50.364;7.550;2023-10-31T13:27:42;2.92;;;1.27;;
54807;SDS011;40708;50.364;7.550;2023-10-31T13:30:09;2.17;;;1.25;;
54807;SDS011;40708;50.364;7.550;2023-10-31T13:32:36;2.78;;;1.30;;
54807;SDS011;40708;50.364;7.550;2023-10-31T13:35:02;3.23;;;1.30;;
54807;SDS011;40708;50.364;7.550;2023-10-31T13:37:28;1.87;;;1.07;;
54807;SDS011;40708;50.364;7.550;2023-10-31T13:39:53;2.63;;;1.07;;
54807;SDS011;40708;50.364;7.550;2023-10-31T13:42:18;3.20;;;1.10;;
54807;SDS011;40708;50.364;7.550;2023-10-31T13:44:44;1.77;;;1.00;;
54807;SDS011;40708;50.364;7.550;2023-10-31T13:47:09;1.97;;;1.07;;
54807;SDS011;40708;50.364;7.550;2023-10-31T13:49:35;4.63;;;1.20;;
54807;SDS011;40708;50.364;7.550;2023-10-31T13:52:02;3.20;;;1.00;;
54807;SDS011;40708;50.364;7.550;2023-10-31T13:54:28;2.50;;;1.70;;
54807;SDS011;40708;50.364;7.550;2023-10-31T13:56:53;3.70;;;1.20;;
54807;SDS011;40708;50.364;7.550;2023-10-31T13:59:19;1.10;;;1.00;;
54807;SDS011;40708;50.364;7.550;2023-10-31T14:01:44;3.23;;;1.20;;
54807;SDS011;40708;50.364;7.550;2023-10-31T14:04:11;2.00;;;1.13;;
54807;SDS011;40708;50.364;7.550;2023-10-31T14:06:38;4.27;;;1.30;;
54807;SDS011;40708;50.364;7.550;2023-10-31T14:09:04;1.93;;;1.20;;
54807;SDS011;40708;50.364;7.550;2023-10-31T14:11:30;3.93;;;1.50;;
54807;SDS011;40708;50.364;7.550;2023-10-31T14:13:55;5.43;;;1.37;;
54807;SDS011;40708;50.364;7.550;2023-10-31T14:16:24;3.30;;;1.10;;
54807;SDS011;40708;50.364;7.550;2023-10-31T14:18:49;2.60;;;1.43;;
54807;SDS011;40708;50.364;7.550;2023-10-31T14:21:15;5.13;;;1.87;;
54807;SDS011;40708;50.364;7.550;2023-10-31T14:23:40;3.07;;;1.13;;
54807;SDS011;40708;50.364;7.550;2023-10-31T14:26:05;2.73;;;1.30;;
54807;SDS011;40708;50.364;7.550;2023-10-31T14:28:31;2.70;;;1.40;;
54807;SDS011;40708;50.364;7.550;2023-10-31T14:30:56;3.37;;;1.50;;
54807;SDS011;40708;50.364;7.550;2023-10-31T14:33:22;3.47;;;1.30;;
54807;SDS011;40708;50.364;7.550;2023-10-31T14:35:47;2.47;;;1.43;;
54807;SDS011;40708;50.364;7.550;2023-10-31T14:38:13;2.63;;;1.27;;
54807;SDS011;40708;50.364;7.550;2023-10-31T14:40:38;4.17;;;1.30;;
54807;SDS011;40708;50.364;7.550;2023-10-31T14:43:03;1.80;;;1.20;;
54807;SDS011;40708;50.364;7.550;2023-10-31T14:45:28;7.03;;;1.83;;
54807;SDS011;40708;50.364;7.550;2023-10-31T14:47:54;4.03;;;1.40;;